Artie, West Virginia
Current Conditions -  °F | °C
As of 2:51 AM on Monday 24 Nov 2014 (Local Time) from KBKW Reporting Station
Overcast Overcast  
Wind Chill: 58°   Ceiling: 6500
Heat Index: 58°   Visibility: 10mi
Dew Point: 47°   Wind: 13mph
Humidity: 67%   Direction: 220°SW
Pressure: 29.61"   Gusts: 24mph
Location:  37.93°N, 81.36°W
Report Text: KBKW 240751Z AUTO 22011G21KT 10SM OVC065 14/08 A2961 RMK AO2 SLP015 T01440083
Loading
Personal Weather Stations






























Interactive Weather Map New forecast layout! Learn more

10-Day Weather Forecast

Advertisements
Track Severe Weather on mobile